sensor_id;sensor_type;location;lat;lon;timestamp;temperature;humidity
7194;DHT22;3638;48.820;9.244;2023-07-13T00:07:12;20.90;98.70
7194;DHT22;3638;48.820;9.244;2023-07-13T00:09:40;20.80;98.60
7194;DHT22;3638;48.820;9.244;2023-07-13T00:12:22;20.90;98.70
7194;DHT22;3638;48.820;9.244;2023-07-13T00:14:52;20.80;98.60
7194;DHT22;3638;48.820;9.244;2023-07-13T00:17:18;20.80;98.30
7194;DHT22;3638;48.820;9.244;2023-07-13T00:32:05;20.40;98.50
7194;DHT22;3638;48.820;9.244;2023-07-13T00:34:35;20.40;98.30
7194;DHT22;3638;48.820;9.244;2023-07-13T00:37:02;20.30;98.30
7194;DHT22;3638;48.820;9.244;2023-07-13T00:39:30;20.20;98.30
7194;DHT22;3638;48.820;9.244;2023-07-13T00:49:23;20.20;98.30
7194;DHT22;3638;48.820;9.244;2023-07-13T00:51:55;20.10;98.60
7194;DHT22;3638;48.820;9.244;2023-07-13T00:54:26;19.90;98.60
7194;DHT22;3638;48.820;9.244;2023-07-13T00:56:57;19.90;98.70
7194;DHT22;3638;48.820;9.244;2023-07-13T01:01:54;19.80;98.90
7194;DHT22;3638;48.820;9.244;2023-07-13T01:04:24;19.80;99.00
7194;DHT22;3638;48.820;9.244;2023-07-13T01:06:51;19.80;99.10
7194;DHT22;3638;48.820;9.244;2023-07-13T01:09:19;19.70;99.20
7194;DHT22;3638;48.820;9.244;2023-07-13T01:11:47;19.80;98.90
7194;DHT22;3638;48.820;9.244;2023-07-13T01:14:15;19.70;99.00
7194;DHT22;3638;48.820;9.244;2023-07-13T01:16:44;19.80;99.00
7194;DHT22;3638;48.820;9.244;2023-07-13T01:19:19;19.70;99.30
7194;DHT22;3638;48.820;9.244;2023-07-13T01:22:03;19.70;99.40
7194;DHT22;3638;48.820;9.244;2023-07-13T01:24:34;19.70;99.50
7194;DHT22;3638;48.820;9.244;2023-07-13T01:27:02;19.60;99.40
7194;DHT22;3638;48.820;9.244;2023-07-13T01:29:32;19.60;99.90
7194;DHT22;3638;48.820;9.244;2023-07-13T01:31:59;19.60;99.80
7194;DHT22;3638;48.820;9.244;2023-07-13T01:34:27;19.50;99.80
7194;DHT22;3638;48.820;9.244;2023-07-13T01:49:11;19.10;99.90
7194;DHT22;3638;48.820;9.244;2023-07-13T01:51:38;19.10;99.90
7194;DHT22;3638;48.820;9.244;2023-07-13T01:56:33;19.00;99.90
7194;DHT22;3638;48.820;9.244;2023-07-13T01:59:00;18.90;99.90
7194;DHT22;3638;48.820;9.244;2023-07-13T02:03:54;19.00;99.90
7194;DHT22;3638;48.820;9.244;2023-07-13T02:08:48;19.10;99.90
7194;DHT22;3638;48.820;9.244;2023-07-13T02:13:44;19.00;99.90
7194;DHT22;3638;48.820;9.244;2023-07-13T02:16:10;18.90;99.50
7194;DHT22;3638;48.820;9.244;2023-07-13T02:26:01;18.80;99.90
7194;DHT22;3638;48.820;9.244;2023-07-13T02:31:05;18.80;99.90
7194;DHT22;3638;48.820;9.244;2023-07-13T02:36:00;18.80;99.90
7194;DHT22;3638;48.820;9.244;2023-07-13T02:43:22;18.60;99.90
7194;DHT22;3638;48.820;9.244;2023-07-13T02:48:17;18.50;99.90
7194;DHT22;3638;48.820;9.244;2023-07-13T02:50:44;18.50;99.90
7194;DHT22;3638;48.820;9.244;2023-07-13T02:53:11;18.30;99.90
7194;DHT22;3638;48.820;9.244;2023-07-13T03:05:29;18.10;99.90
7194;DHT22;3638;48.820;9.244;2023-07-13T03:07:56;18.00;99.90
7194;DHT22;3638;48.820;9.244;2023-07-13T03:12:51;17.50;99.90
7194;DHT22;3638;48.820;9.244;2023-07-13T03:22:41;17.50;99.90
7194;DHT22;3638;48.820;9.244;2023-07-13T03:25:08;17.50;99.90
7194;DHT22;3638;48.820;9.244;2023-07-13T03:30:04;17.60;99.90
7194;DHT22;3638;48.820;9.244;2023-07-13T03:39:55;17.90;99.90
7194;DHT22;3638;48.820;9.244;2023-07-13T03:42:22;18.00;99.90
7194;DHT22;3638;48.820;9.244;2023-07-13T03:47:18;18.10;99.90
7194;DHT22;3638;48.820;9.244;2023-07-13T03:57:08;18.40;99.90
7194;DHT22;3638;48.820;9.244;2023-07-13T04:02:02;18.50;99.90
7194;DHT22;3638;48.820;9.244;2023-07-13T04:09:25;18.70;99.90
7194;DHT22;3638;48.820;9.244;2023-07-13T04:14:20;18.90;99.90
7194;DHT22;3638;48.820;9.244;2023-07-13T04:16:47;18.80;99.90
7194;DHT22;3638;48.820;9.244;2023-07-13T04:21:41;18.80;99.90
7194;DHT22;3638;48.820;9.244;2023-07-13T04:26:35;19.00;99.90
7194;DHT22;3638;48.820;9.244;2023-07-13T04:31:33;19.30;99.90
7194;DHT22;3638;48.820;9.244;2023-07-13T04:36:28;19.40;99.90
7194;DHT22;3638;48.820;9.244;2023-07-13T04:38:55;19.40;99.90
7194;DHT22;3638;48.820;9.244;2023-07-13T04:41:22;19.60;99.90
7194;DHT22;3638;48.820;9.244;2023-07-13T04:43:48;19.70;99.90
7194;DHT22;3638;48.820;9.244;2023-07-13T04:46:16;19.60;99.90
7194;DHT22;3638;48.820;9.244;2023-07-13T04:48:46;19.50;99.90
7194;DHT22;3638;48.820;9.244;2023-07-13T04:51:13;19.40;99.90
7194;DHT22;3638;48.820;9.244;2023-07-13T04:58:34;19.20;99.90
7194;DHT22;3638;48.820;9.244;2023-07-13T05:01:02;19.30;99.90
7194;DHT22;3638;48.820;9.244;2023-07-13T05:03:31;19.40;99.90
7194;DHT22;3638;48.820;9.244;2023-07-13T05:06:01;19.50;99.90
7194;DHT22;3638;48.820;9.244;2023-07-13T05:15:57;19.90;99.90
7194;DHT22;3638;48.820;9.244;2023-07-13T05:18:24;20.30;99.90
7194;DHT22;3638;48.820;9.244;2023-07-13T05:20:59;20.70;99.90
7194;DHT22;3638;48.820;9.244;2023-07-13T05:23:27;20.90;98.50
7194;DHT22;3638;48.820;9.244;2023-07-13T05:28:22;20.80;98.70
7194;DHT22;3638;48.820;9.244;2023-07-13T05:30:49;20.90;98.90
7194;DHT22;3638;48.820;9.244;2023-07-13T05:33:17;20.90;98.40
7194;DHT22;3638;48.820;9.244;2023-07-13T05:38:12;21.20;98.40
7194;DHT22;3638;48.820;9.244;2023-07-13T05:40:41;21.20;97.80
7194;DHT22;3638;48.820;9.244;2023-07-13T05:55:26;21.10;98.30
7194;DHT22;3638;48.820;9.244;2023-07-13T05:57:53;21.10;97.50
7194;DHT22;3638;48.820;9.244;2023-07-13T06:12:38;21.50;97.20
7194;DHT22;3638;48.820;9.244;2023-07-13T06:15:06;21.60;95.90
7194;DHT22;3638;48.820;9.244;2023-07-13T06:17:34;22.00;96.30
7194;DHT22;3638;48.820;9.244;2023-07-13T06:20:02;22.20;95.20
7194;DHT22;3638;48.820;9.244;2023-07-13T06:29:52;23.60;92.10
7194;DHT22;3638;48.820;9.244;2023-07-13T06:42:08;22.30;93.90
7194;DHT22;3638;48.820;9.244;2023-07-13T06:44:35;23.00;91.80
7194;DHT22;3638;48.820;9.244;2023-07-13T06:47:03;23.20;91.80
7194;DHT22;3638;48.820;9.244;2023-07-13T06:49:31;24.10;91.00
7194;DHT22;3638;48.820;9.244;2023-07-13T06:59:19;24.50;90.70
7194;DHT22;3638;48.820;9.244;2023-07-13T07:01:46;25.00;88.10
7194;DHT22;3638;48.820;9.244;2023-07-13T07:04:14;25.10;87.20
7194;DHT22;3638;48.820;9.244;2023-07-13T07:06:41;24.80;86.80
7194;DHT22;3638;48.820;9.244;2023-07-13T07:21:26;24.70;85.10
7194;DHT22;3638;48.820;9.244;2023-07-13T07:23:53;25.30;87.40
7194;DHT22;3638;48.820;9.244;2023-07-13T07:26:20;25.70;85.40
7194;DHT22;3638;48.820;9.244;2023-07-13T07:28:46;25.60;83.20
7194;DHT22;3638;48.820;9.244;2023-07-13T07:31:13;25.80;82.50
7194;DHT22;3638;48.820;9.244;2023-07-13T07:36:08;26.30;83.30
7194;DHT22;3638;48.820;9.244;2023-07-13T07:38:37;26.10;81.10
7194;DHT22;3638;48.820;9.244;2023-07-13T07:45:58;25.90;80.80
7194;DHT22;3638;48.820;9.244;2023-07-13T07:48:25;25.50;81.20
7194;DHT22;3638;48.820;9.244;2023-07-13T07:55:47;25.40;82.40
7194;DHT22;3638;48.820;9.244;2023-07-13T07:58:15;25.40;78.30
7194;DHT22;3638;48.820;9.244;2023-07-13T08:00:42;25.50;78.20
7194;DHT22;3638;48.820;9.244;2023-07-13T08:05:36;26.40;77.10
7194;DHT22;3638;48.820;9.244;2023-07-13T08:08:04;26.10;75.40
7194;DHT22;3638;48.820;9.244;2023-07-13T08:12:59;24.90;75.30
7194;DHT22;3638;48.820;9.244;2023-07-13T08:15:26;25.10;77.60
7194;DHT22;3638;48.820;9.244;2023-07-13T08:25:15;26.40;74.50
7194;DHT22;3638;48.820;9.244;2023-07-13T08:30:11;25.60;74.70
7194;DHT22;3638;48.820;9.244;2023-07-13T08:35:06;25.80;75.00
7194;DHT22;3638;48.820;9.244;2023-07-13T08:40:00;25.40;75.40
7194;DHT22;3638;48.820;9.244;2023-07-13T08:42:33;24.70;76.10
7194;DHT22;3638;48.820;9.244;2023-07-13T08:45:08;25.00;77.60
7194;DHT22;3638;48.820;9.244;2023-07-13T08:47:46;25.30;76.30
7194;DHT22;3638;48.820;9.244;2023-07-13T08:50:17;25.20;76.60
7194;DHT22;3638;48.820;9.244;2023-07-13T08:52:45;25.10;76.20
7194;DHT22;3638;48.820;9.244;2023-07-13T08:55:15;25.10;76.50
7194;DHT22;3638;48.820;9.244;2023-07-13T08:57:45;25.20;77.10
7194;DHT22;3638;48.820;9.244;2023-07-13T09:00:17;25.20;75.50
7194;DHT22;3638;48.820;9.244;2023-07-13T09:02:48;25.20;75.20
7194;DHT22;3638;48.820;9.244;2023-07-13T09:05:26;25.20;76.30
7194;DHT22;3638;48.820;9.244;2023-07-13T09:08:14;25.40;78.40
7194;DHT22;3638;48.820;9.244;2023-07-13T09:11:01;26.00;77.30
7194;DHT22;3638;48.820;9.244;2023-07-13T09:13:46;26.40;78.80
7194;DHT22;3638;48.820;9.244;2023-07-13T09:16:19;26.30;72.00
7194;DHT22;3638;48.820;9.244;2023-07-13T09:18:49;25.70;73.60
7194;DHT22;3638;48.820;9.244;2023-07-13T09:21:22;25.20;75.80
7194;DHT22;3638;48.820;9.244;2023-07-13T09:23:53;25.00;75.40
7194;DHT22;3638;48.820;9.244;2023-07-13T09:26:22;25.10;75.50
7194;DHT22;3638;48.820;9.244;2023-07-13T09:28:54;25.40;76.80
7194;DHT22;3638;48.820;9.244;2023-07-13T09:31:31;25.70;76.00
7194;DHT22;3638;48.820;9.244;2023-07-13T09:36:29;25.10;74.90
7194;DHT22;3638;48.820;9.244;2023-07-13T09:39:03;25.50;75.60
7194;DHT22;3638;48.820;9.244;2023-07-13T09:41:39;25.80;76.00
7194;DHT22;3638;48.820;9.244;2023-07-13T09:44:09;26.10;73.90
7194;DHT22;3638;48.820;9.244;2023-07-13T09:46:43;26.20;74.70
7194;DHT22;3638;48.820;9.244;2023-07-13T09:54:18;26.50;71.80
7194;DHT22;3638;48.820;9.244;2023-07-13T09:56:46;26.70;72.40
7194;DHT22;3638;48.820;9.244;2023-07-13T09:59:20;26.70;73.00
7194;DHT22;3638;48.820;9.244;2023-07-13T10:01:50;26.50;72.10
7194;DHT22;3638;48.820;9.244;2023-07-13T10:04:19;26.20;73.60
7194;DHT22;3638;48.820;9.244;2023-07-13T10:09:17;26.60;72.10
7194;DHT22;3638;48.820;9.244;2023-07-13T10:11:45;26.50;74.90
7194;DHT22;3638;48.820;9.244;2023-07-13T10:14:15;26.90;73.30
7194;DHT22;3638;48.820;9.244;2023-07-13T10:16:45;27.20;70.70
7194;DHT22;3638;48.820;9.244;2023-07-13T10:19:19;26.90;72.10
7194;DHT22;3638;48.820;9.244;2023-07-13T10:21:53;27.00;72.40
7194;DHT22;3638;48.820;9.244;2023-07-13T10:24:23;27.20;72.50
7194;DHT22;3638;48.820;9.244;2023-07-13T10:26:56;27.20;72.00
7194;DHT22;3638;48.820;9.244;2023-07-13T10:29:27;27.20;71.70
7194;DHT22;3638;48.820;9.244;2023-07-13T10:34:25;27.70;69.50
7194;DHT22;3638;48.820;9.244;2023-07-13T10:36:52;27.70;69.20
7194;DHT22;3638;48.820;9.244;2023-07-13T10:39:21;27.70;70.90
7194;DHT22;3638;48.820;9.244;2023-07-13T10:41:53;28.00;70.80
7194;DHT22;3638;48.820;9.244;2023-07-13T10:44:24;27.70;66.70
7194;DHT22;3638;48.820;9.244;2023-07-13T10:49:24;27.70;69.20
7194;DHT22;3638;48.820;9.244;2023-07-13T10:51:53;27.50;69.30
7194;DHT22;3638;48.820;9.244;2023-07-13T10:54:21;27.10;68.80
7194;DHT22;3638;48.820;9.244;2023-07-13T10:57:06;26.70;70.60
7194;DHT22;3638;48.820;9.244;2023-07-13T11:02:11;26.20;70.70
7194;DHT22;3638;48.820;9.244;2023-07-13T11:04:44;26.40;70.90
7194;DHT22;3638;48.820;9.244;2023-07-13T11:07:20;26.50;71.90
7194;DHT22;3638;48.820;9.244;2023-07-13T11:09:53;26.90;71.40
7194;DHT22;3638;48.820;9.244;2023-07-13T11:12:49;27.00;71.30
7194;DHT22;3638;48.820;9.244;2023-07-13T11:15:32;25.80;71.40
7194;DHT22;3638;48.820;9.244;2023-07-13T11:18:20;25.90;72.60
7194;DHT22;3638;48.820;9.244;2023-07-13T11:20:49;26.40;72.70
7194;DHT22;3638;48.820;9.244;2023-07-13T11:23:29;26.80;71.10
7194;DHT22;3638;48.820;9.244;2023-07-13T11:25:57;26.50;70.90
7194;DHT22;3638;48.820;9.244;2023-07-13T11:28:29;26.70;72.20
7194;DHT22;3638;48.820;9.244;2023-07-13T11:31:03;26.50;71.30
7194;DHT22;3638;48.820;9.244;2023-07-13T11:33:52;26.20;70.10
7194;DHT22;3638;48.820;9.244;2023-07-13T11:36:24;26.10;72.30
7194;DHT22;3638;48.820;9.244;2023-07-13T11:39:01;26.40;71.10
7194;DHT22;3638;48.820;9.244;2023-07-13T11:41:32;26.50;71.40
7194;DHT22;3638;48.820;9.244;2023-07-13T11:44:07;26.80;72.80
7194;DHT22;3638;48.820;9.244;2023-07-13T11:51:35;27.50;68.30
7194;DHT22;3638;48.820;9.244;2023-07-13T11:54:05;27.20;69.10
7194;DHT22;3638;48.820;9.244;2023-07-13T11:59:06;27.10;69.50
7194;DHT22;3638;48.820;9.244;2023-07-13T12:01:36;27.60;69.00
7194;DHT22;3638;48.820;9.244;2023-07-13T12:04:20;27.70;67.00
7194;DHT22;3638;48.820;9.244;2023-07-13T12:06:55;27.70;66.10
7194;DHT22;3638;48.820;9.244;2023-07-13T12:09:26;27.40;66.50
7194;DHT22;3638;48.820;9.244;2023-07-13T12:11:57;27.70;67.30
7194;DHT22;3638;48.820;9.244;2023-07-13T12:14:26;27.60;67.50
7194;DHT22;3638;48.820;9.244;2023-07-13T12:16:53;27.70;68.20
7194;DHT22;3638;48.820;9.244;2023-07-13T12:19:23;27.60;67.30
7194;DHT22;3638;48.820;9.244;2023-07-13T12:21:56;27.60;65.10
7194;DHT22;3638;48.820;9.244;2023-07-13T12:24:24;27.00;67.30
7194;DHT22;3638;48.820;9.244;2023-07-13T12:26:53;27.10;66.80
7194;DHT22;3638;48.820;9.244;2023-07-13T12:29:21;26.70;68.10
7194;DHT22;3638;48.820;9.244;2023-07-13T12:31:49;27.00;66.50
7194;DHT22;3638;48.820;9.244;2023-07-13T12:34:19;26.70;67.50
7194;DHT22;3638;48.820;9.244;2023-07-13T12:36:49;26.40;67.10
7194;DHT22;3638;48.820;9.244;2023-07-13T12:39:20;26.20;67.40
7194;DHT22;3638;48.820;9.244;2023-07-13T12:41:49;26.10;68.30
7194;DHT22;3638;48.820;9.244;2023-07-13T12:44:18;26.20;69.20
7194;DHT22;3638;48.820;9.244;2023-07-13T12:46:57;26.20;68.10
7194;DHT22;3638;48.820;9.244;2023-07-13T12:49:31;26.40;66.90
7194;DHT22;3638;48.820;9.244;2023-07-13T12:52:01;26.40;65.50
7194;DHT22;3638;48.820;9.244;2023-07-13T12:54:30;26.50;67.20
7194;DHT22;3638;48.820;9.244;2023-07-13T12:56:59;26.50;64.80
7194;DHT22;3638;48.820;9.244;2023-07-13T12:59:31;26.80;66.90
7194;DHT22;3638;48.820;9.244;2023-07-13T13:02:02;26.90;65.60
7194;DHT22;3638;48.820;9.244;2023-07-13T13:04:31;27.00;66.00
7194;DHT22;3638;48.820;9.244;2023-07-13T13:07:03;27.00;66.80
7194;DHT22;3638;48.820;9.244;2023-07-13T13:09:34;27.00;65.70
7194;DHT22;3638;48.820;9.244;2023-07-13T13:12:02;26.90;63.70
7194;DHT22;3638;48.820;9.244;2023-07-13T13:19:28;26.60;66.30
7194;DHT22;3638;48.820;9.244;2023-07-13T13:21:56;26.60;65.10
7194;DHT22;3638;48.820;9.244;2023-07-13T13:24:27;27.00;64.60
7194;DHT22;3638;48.820;9.244;2023-07-13T13:26:56;27.10;64.50
7194;DHT22;3638;48.820;9.244;2023-07-13T13:29:24;27.30;63.80
7194;DHT22;3638;48.820;9.244;2023-07-13T13:31:52;27.20;63.50
7194;DHT22;3638;48.820;9.244;2023-07-13T13:34:22;27.20;63.80
7194;DHT22;3638;48.820;9.244;2023-07-13T13:36:52;27.10;63.20
7194;DHT22;3638;48.820;9.244;2023-07-13T13:39:21;27.30;64.00
7194;DHT22;3638;48.820;9.244;2023-07-13T13:41:51;27.50;64.60
7194;DHT22;3638;48.820;9.244;2023-07-13T13:44:21;27.70;63.60
7194;DHT22;3638;48.820;9.244;2023-07-13T13:46:52;27.50;62.60
7194;DHT22;3638;48.820;9.244;2023-07-13T13:49:22;27.20;64.00
7194;DHT22;3638;48.820;9.244;2023-07-13T13:51:51;27.10;63.10
7194;DHT22;3638;48.820;9.244;2023-07-13T13:54:20;26.80;62.70
7194;DHT22;3638;48.820;9.244;2023-07-13T13:56:50;26.70;63.40
7194;DHT22;3638;48.820;9.244;2023-07-13T13:59:19;26.90;65.10
7194;DHT22;3638;48.820;9.244;2023-07-13T14:01:47;26.90;63.20
7194;DHT22;3638;48.820;9.244;2023-07-13T14:04:17;26.80;64.80
7194;DHT22;3638;48.820;9.244;2023-07-13T14:06:45;26.70;64.30
7194;DHT22;3638;48.820;9.244;2023-07-13T14:09:15;26.70;65.10
7194;DHT22;3638;48.820;9.244;2023-07-13T14:11:44;26.70;63.40
7194;DHT22;3638;48.820;9.244;2023-07-13T14:14:14;26.70;63.60
7194;DHT22;3638;48.820;9.244;2023-07-13T14:16:44;26.60;63.70
7194;DHT22;3638;48.820;9.244;2023-07-13T14:19:12;26.50;63.70
7194;DHT22;3638;48.820;9.244;2023-07-13T14:21:40;26.60;64.30
7194;DHT22;3638;48.820;9.244;2023-07-13T14:26:38;26.60;63.80
7194;DHT22;3638;48.820;9.244;2023-07-13T14:29:13;26.70;63.80
7194;DHT22;3638;48.820;9.244;2023-07-13T14:31:44;26.80;62.50
7194;DHT22;3638;48.820;9.244;2023-07-13T14:34:12;26.80;62.90
7194;DHT22;3638;48.820;9.244;2023-07-13T14:36:41;27.00;64.40
7194;DHT22;3638;48.820;9.244;2023-07-13T14:39:14;27.10;61.60
7194;DHT22;3638;48.820;9.244;2023-07-13T14:41:42;27.10;62.90
7194;DHT22;3638;48.820;9.244;2023-07-13T14:44:12;27.20;62.60
7194;DHT22;3638;48.820;9.244;2023-07-13T14:46:39;27.40;62.00
7194;DHT22;3638;48.820;9.244;2023-07-13T14:49:14;27.10;62.50
7194;DHT22;3638;48.820;9.244;2023-07-13T14:51:43;26.90;61.20
7194;DHT22;3638;48.820;9.244;2023-07-13T14:54:10;26.70;62.30
7194;DHT22;3638;48.820;9.244;2023-07-13T14:56:37;26.50;63.60
7194;DHT22;3638;48.820;9.244;2023-07-13T15:01:33;26.60;64.40
7194;DHT22;3638;48.820;9.244;2023-07-13T15:04:00;26.50;63.40
7194;DHT22;3638;48.820;9.244;2023-07-13T15:06:30;26.70;63.60
7194;DHT22;3638;48.820;9.244;2023-07-13T15:08:57;26.40;64.20
7194;DHT22;3638;48.820;9.244;2023-07-13T15:11:24;26.40;65.10
7194;DHT22;3638;48.820;9.244;2023-07-13T15:13:51;26.50;65.00
7194;DHT22;3638;48.820;9.244;2023-07-13T15:16:22;26.60;63.70
7194;DHT22;3638;48.820;9.244;2023-07-13T15:18:50;26.80;64.70
7194;DHT22;3638;48.820;9.244;2023-07-13T15:21:20;26.80;64.80
7194;DHT22;3638;48.820;9.244;2023-07-13T15:23:51;26.80;64.70
7194;DHT22;3638;48.820;9.244;2023-07-13T15:26:19;26.60;64.50
7194;DHT22;3638;48.820;9.244;2023-07-13T15:28:46;26.50;64.70
7194;DHT22;3638;48.820;9.244;2023-07-13T15:31:19;27.20;65.30
7194;DHT22;3638;48.820;9.244;2023-07-13T15:36:16;26.50;65.00
7194;DHT22;3638;48.820;9.244;2023-07-13T15:38:44;26.50;64.70
7194;DHT22;3638;48.820;9.244;2023-07-13T15:41:21;26.50;63.90
7194;DHT22;3638;48.820;9.244;2023-07-13T15:43:50;26.50;64.90
7194;DHT22;3638;48.820;9.244;2023-07-13T15:46:18;26.50;64.80
7194;DHT22;3638;48.820;9.244;2023-07-13T15:48:47;26.40;64.60
7194;DHT22;3638;48.820;9.244;2023-07-13T15:51:24;26.50;65.50
7194;DHT22;3638;48.820;9.244;2023-07-13T15:53:53;26.30;64.80
7194;DHT22;3638;48.820;9.244;2023-07-13T15:56:25;26.10;65.30
7194;DHT22;3638;48.820;9.244;2023-07-13T15:58:54;26.40;65.20
7194;DHT22;3638;48.820;9.244;2023-07-13T16:01:23;26.30;64.90
7194;DHT22;3638;48.820;9.244;2023-07-13T16:03:50;26.10;64.90
7194;DHT22;3638;48.820;9.244;2023-07-13T16:06:20;26.10;65.80
7194;DHT22;3638;48.820;9.244;2023-07-13T16:08:51;26.20;65.90
7194;DHT22;3638;48.820;9.244;2023-07-13T16:11:21;26.30;65.50
7194;DHT22;3638;48.820;9.244;2023-07-13T16:13:51;26.40;66.30
7194;DHT22;3638;48.820;9.244;2023-07-13T16:16:21;26.30;65.00
7194;DHT22;3638;48.820;9.244;2023-07-13T16:18:52;26.20;65.50
7194;DHT22;3638;48.820;9.244;2023-07-13T16:21:20;26.00;63.90
7194;DHT22;3638;48.820;9.244;2023-07-13T16:26:27;25.60;65.30
7194;DHT22;3638;48.820;9.244;2023-07-13T16:31:30;25.60;66.70
7194;DHT22;3638;48.820;9.244;2023-07-13T16:33:58;25.70;66.60
7194;DHT22;3638;48.820;9.244;2023-07-13T16:36:26;25.70;66.10
7194;DHT22;3638;48.820;9.244;2023-07-13T16:38:54;25.60;65.40
7194;DHT22;3638;48.820;9.244;2023-07-13T16:41:21;25.70;65.60
7194;DHT22;3638;48.820;9.244;2023-07-13T16:43:49;25.70;65.90
7194;DHT22;3638;48.820;9.244;2023-07-13T16:46:21;25.70;64.60
7194;DHT22;3638;48.820;9.244;2023-07-13T16:48:49;25.70;65.10
7194;DHT22;3638;48.820;9.244;2023-07-13T16:51:17;25.50;66.50
7194;DHT22;3638;48.820;9.244;2023-07-13T16:53:44;25.60;66.20
7194;DHT22;3638;48.820;9.244;2023-07-13T16:56:16;25.60;66.00
7194;DHT22;3638;48.820;9.244;2023-07-13T16:58:44;25.50;66.50
7194;DHT22;3638;48.820;9.244;2023-07-13T17:01:13;25.40;66.80
7194;DHT22;3638;48.820;9.244;2023-07-13T17:03:41;25.40;67.20
7194;DHT22;3638;48.820;9.244;2023-07-13T17:06:21;25.50;67.20
7194;DHT22;3638;48.820;9.244;2023-07-13T17:08:52;25.60;66.90
7194;DHT22;3638;48.820;9.244;2023-07-13T17:11:21;25.60;66.90
7194;DHT22;3638;48.820;9.244;2023-07-13T17:16:22;25.50;67.10
7194;DHT22;3638;48.820;9.244;2023-07-13T17:18:51;25.60;67.50
7194;DHT22;3638;48.820;9.244;2023-07-13T17:21:18;25.60;67.70
7194;DHT22;3638;48.820;9.244;2023-07-13T17:28:44;25.70;67.60
7194;DHT22;3638;48.820;9.244;2023-07-13T17:31:17;25.50;66.20
7194;DHT22;3638;48.820;9.244;2023-07-13T17:33:47;25.50;66.90
7194;DHT22;3638;48.820;9.244;2023-07-13T17:36:15;25.30;66.80
7194;DHT22;3638;48.820;9.244;2023-07-13T17:38:45;25.30;67.10
7194;DHT22;3638;48.820;9.244;2023-07-13T17:41:16;25.20;67.30
7194;DHT22;3638;48.820;9.244;2023-07-13T17:43:44;25.20;67.70
7194;DHT22;3638;48.820;9.244;2023-07-13T17:46:13;25.20;68.40
7194;DHT22;3638;48.820;9.244;2023-07-13T17:48:42;25.00;68.70
7194;DHT22;3638;48.820;9.244;2023-07-13T17:51:13;25.00;69.20
7194;DHT22;3638;48.820;9.244;2023-07-13T17:53:41;24.80;69.10
7194;DHT22;3638;48.820;9.244;2023-07-13T17:56:09;24.90;69.70
7194;DHT22;3638;48.820;9.244;2023-07-13T17:58:36;24.90;69.80
7194;DHT22;3638;48.820;9.244;2023-07-13T18:01:03;24.60;70.00
7194;DHT22;3638;48.820;9.244;2023-07-13T18:03:33;24.60;70.40
7194;DHT22;3638;48.820;9.244;2023-07-13T18:06:12;24.60;70.80
7194;DHT22;3638;48.820;9.244;2023-07-13T18:08:46;24.60;70.50
7194;DHT22;3638;48.820;9.244;2023-07-13T18:11:16;28.80;73.70
7194;DHT22;3638;48.820;9.244;2023-07-13T18:13:43;24.50;70.20
7194;DHT22;3638;48.820;9.244;2023-07-13T18:16:17;24.40;70.90
7194;DHT22;3638;48.820;9.244;2023-07-13T18:18:46;24.50;70.80
7194;DHT22;3638;48.820;9.244;2023-07-13T18:21:14;24.30;71.20
7194;DHT22;3638;48.820;9.244;2023-07-13T18:23:43;24.30;71.50
7194;DHT22;3638;48.820;9.244;2023-07-13T18:26:12;24.30;72.00
7194;DHT22;3638;48.820;9.244;2023-07-13T18:28:42;24.10;72.40
7194;DHT22;3638;48.820;9.244;2023-07-13T18:31:11;24.10;72.00
7194;DHT22;3638;48.820;9.244;2023-07-13T18:33:41;24.10;72.50
7194;DHT22;3638;48.820;9.244;2023-07-13T18:36:14;23.90;72.60
7194;DHT22;3638;48.820;9.244;2023-07-13T18:38:42;23.80;72.80
7194;DHT22;3638;48.820;9.244;2023-07-13T18:41:11;23.80;73.10
7194;DHT22;3638;48.820;9.244;2023-07-13T18:46:15;23.70;73.80
7194;DHT22;3638;48.820;9.244;2023-07-13T18:51:14;23.70;75.00
7194;DHT22;3638;48.820;9.244;2023-07-13T18:53:41;23.80;74.50
7194;DHT22;3638;48.820;9.244;2023-07-13T18:56:09;23.70;74.10
7194;DHT22;3638;48.820;9.244;2023-07-13T19:01:10;23.50;74.50
7194;DHT22;3638;48.820;9.244;2023-07-13T19:06:13;23.50;75.40
7194;DHT22;3638;48.820;9.244;2023-07-13T19:08:41;23.50;75.50
7194;DHT22;3638;48.820;9.244;2023-07-13T19:11:12;23.50;75.50
7194;DHT22;3638;48.820;9.244;2023-07-13T19:13:40;23.40;75.80
7194;DHT22;3638;48.820;9.244;2023-07-13T19:18:38;23.20;75.20
7194;DHT22;3638;48.820;9.244;2023-07-13T19:21:08;23.20;75.50
7194;DHT22;3638;48.820;9.244;2023-07-13T19:23:45;23.10;75.50
7194;DHT22;3638;48.820;9.244;2023-07-13T19:26:18;23.10;75.50
7194;DHT22;3638;48.820;9.244;2023-07-13T19:28:47;22.90;76.00
7194;DHT22;3638;48.820;9.244;2023-07-13T19:31:18;22.80;76.60
7194;DHT22;3638;48.820;9.244;2023-07-13T19:36:17;22.80;77.90
7194;DHT22;3638;48.820;9.244;2023-07-13T19:38:45;22.60;77.10
7194;DHT22;3638;48.820;9.244;2023-07-13T19:41:17;22.60;78.70
7194;DHT22;3638;48.820;9.244;2023-07-13T19:43:47;22.70;78.30
7194;DHT22;3638;48.820;9.244;2023-07-13T19:46:21;22.50;78.80
7194;DHT22;3638;48.820;9.244;2023-07-13T19:48:52;22.50;78.60
7194;DHT22;3638;48.820;9.244;2023-07-13T19:51:21;22.30;78.90
7194;DHT22;3638;48.820;9.244;2023-07-13T19:53:49;22.20;79.30
7194;DHT22;3638;48.820;9.244;2023-07-13T19:56:16;22.40;80.80
7194;DHT22;3638;48.820;9.244;2023-07-13T20:06:26;22.20;82.20
7194;DHT22;3638;48.820;9.244;2023-07-13T20:08:57;22.20;81.80
7194;DHT22;3638;48.820;9.244;2023-07-13T20:11:24;22.20;81.50
7194;DHT22;3638;48.820;9.244;2023-07-13T20:13:52;22.20;82.40
7194;DHT22;3638;48.820;9.244;2023-07-13T20:16:19;22.20;82.20
7194;DHT22;3638;48.820;9.244;2023-07-13T20:18:48;22.20;82.20
7194;DHT22;3638;48.820;9.244;2023-07-13T20:21:15;22.10;82.90
7194;DHT22;3638;48.820;9.244;2023-07-13T20:23:43;22.00;83.00
7194;DHT22;3638;48.820;9.244;2023-07-13T20:26:10;22.00;83.70
7194;DHT22;3638;48.820;9.244;2023-07-13T20:28:37;21.90;84.30
7194;DHT22;3638;48.820;9.244;2023-07-13T20:31:05;21.70;83.70
7194;DHT22;3638;48.820;9.244;2023-07-13T20:33:38;21.70;84.10
7194;DHT22;3638;48.820;9.244;2023-07-13T20:36:05;21.70;84.10
7194;DHT22;3638;48.820;9.244;2023-07-13T20:41:01;21.60;84.70
7194;DHT22;3638;48.820;9.244;2023-07-13T20:43:28;21.70;86.00
7194;DHT22;3638;48.820;9.244;2023-07-13T20:45:59;21.50;87.20
7194;DHT22;3638;48.820;9.244;2023-07-13T20:48:29;21.40;87.70
7194;DHT22;3638;48.820;9.244;2023-07-13T20:53:29;21.30;90.00
7194;DHT22;3638;48.820;9.244;2023-07-13T20:58:25;21.20;90.40
7194;DHT22;3638;48.820;9.244;2023-07-13T21:00:52;21.20;90.90
7194;DHT22;3638;48.820;9.244;2023-07-13T21:03:21;21.30;90.80
7194;DHT22;3638;48.820;9.244;2023-07-13T21:05:52;21.20;90.80
7194;DHT22;3638;48.820;9.244;2023-07-13T21:08:23;21.20;90.30
7194;DHT22;3638;48.820;9.244;2023-07-13T21:10:52;21.20;90.10
7194;DHT22;3638;48.820;9.244;2023-07-13T21:13:19;21.20;90.00
7194;DHT22;3638;48.820;9.244;2023-07-13T21:15:47;21.20;89.50
7194;DHT22;3638;48.820;9.244;2023-07-13T21:18:17;21.10;90.10
7194;DHT22;3638;48.820;9.244;2023-07-13T21:20:49;21.00;90.60
7194;DHT22;3638;48.820;9.244;2023-07-13T21:23:26;21.00;90.40
7194;DHT22;3638;48.820;9.244;2023-07-13T21:25:55;20.90;90.60
7194;DHT22;3638;48.820;9.244;2023-07-13T21:28:23;20.70;92.00
7194;DHT22;3638;48.820;9.244;2023-07-13T21:30:54;20.60;93.10
7194;DHT22;3638;48.820;9.244;2023-07-13T21:35:51;20.10;93.80
7194;DHT22;3638;48.820;9.244;2023-07-13T21:38:20;20.20;93.90
7194;DHT22;3638;48.820;9.244;2023-07-13T21:40:50;20.20;93.80